Time;durP1;ratioP1;P1;durP2;ratioP2;P2;SDS_P1;SDS_P2;PMS_P1;PMS_P2;Temp;Humidity;BMP_temperature;BMP_pressure;BME280_temperature;BME280_humidity;BME280_pressure;Samples;Min_cycle;Max_cycle;Signal;HPM_P1;HPM_P2
2023/01/19 00:01:30;;;;;;;1.85;0.90;;;;;;;16.00;81.08;99379.88;20300895;29;20056;-92
2023/01/19 00:11:32;;;;;;;0.82;0.55;;;;;;;16.01;81.02;99378.03;20313806;29;20059;-93
2023/01/19 00:21:33;;;;;;;0.75;0.43;;;;;;;16.01;80.62;99376.19;20313171;29;20056;-93
2023/01/19 00:31:35;;;;;;;0.82;0.50;;;;;;;15.91;80.58;99362.06;20295801;29;20049;-92
2023/01/19 00:51:57;;;;;;;0.63;0.55;;;;;;;15.62;79.98;99322.97;20312298;29;20099;-92
2023/01/19 01:01:59;;;;;;;1.38;0.68;;;;;;;16.01;79.90;99386.94;20312013;29;20095;-92
2023/01/19 01:12:01;;;;;;;0.60;0.40;;;;;;;15.85;79.80;99368.88;20311976;29;20126;-91
2023/01/19 01:22:03;;;;;;;1.10;0.57;;;;;;;15.85;79.67;99376.06;20311575;29;20064;-92
2023/01/19 01:32:04;;;;;;;0.77;0.50;;;;;;;15.79;79.44;99378.38;20320677;29;20050;-93
2023/01/19 01:42:17;;;;;;;0.85;0.50;;;;;;;16.01;79.42;99415.59;20323725;29;20047;-93
2023/01/19 01:52:19;;;;;;;0.50;0.40;;;;;;;15.77;79.49;99366.97;20307027;29;20052;-91
2023/01/19 02:23:11;;;;;;;0.60;0.50;;;;;;;15.93;78.60;99406.50;20321222;29;20107;-92
2023/01/19 02:33:12;;;;;;;0.63;0.40;;;;;;;15.86;78.63;99397.38;20289088;29;20056;-92
2023/01/19 02:43:15;;;;;;;0.40;0.40;;;;;;;15.70;78.56;99371.31;20319150;29;20086;-91
2023/01/19 02:53:46;;;;;;;0.80;0.50;;;;;;;15.99;78.12;99402.34;20302622;29;20048;-93
2023/01/19 03:04:03;;;;;;;0.82;0.40;;;;;;;15.99;78.03;99405.03;20300970;29;20044;-91
2023/01/19 03:14:13;;;;;;;0.30;0.30;;;;;;;16.00;78.01;99395.13;20301105;29;20060;-93
2023/01/19 03:24:16;;;;;;;0.68;0.50;;;;;;;15.99;77.92;99409.56;20299807;29;20048;-92
2023/01/19 03:34:22;;;;;;;0.68;0.45;;;;;;;15.95;77.61;99415.25;20298815;29;20052;-91
2023/01/19 03:44:26;;;;;;;0.88;0.50;;;;;;;15.99;77.64;99433.72;20237552;29;20510;-92
2023/01/19 03:54:27;;;;;;;0.30;0.30;;;;;;;15.99;77.56;99437.25;20235577;29;20048;-92
2023/01/19 04:04:29;;;;;;;0.57;0.30;;;;;;;15.97;77.40;99436.56;20203806;29;20116;-92
2023/01/19 04:14:30;;;;;;;1.15;0.40;;;;;;;15.99;77.47;99437.25;20235248;29;20397;-93
2023/01/19 04:24:32;;;;;;;0.40;0.30;;;;;;;15.86;77.13;99410.81;20219038;29;20088;-93
2023/01/19 04:34:33;;;;;;;0.88;0.45;;;;;;;15.80;77.02;99390.81;20265544;29;20071;-92
2023/01/19 04:44:35;;;;;;;0.75;0.30;;;;;;;15.99;77.03;99425.66;20313426;29;20055;-92
2023/01/19 04:54:36;;;;;;;0.30;0.25;;;;;;;15.98;76.99;99424.81;20312105;29;20108;-92
2023/01/19 05:04:38;;;;;;;0.60;0.40;;;;;;;15.99;76.73;99434.56;20319935;29;20048;-92
2023/01/19 05:14:39;;;;;;;0.30;0.30;;;;;;;15.79;76.62;99415.13;20309327;29;20087;-90
2023/01/19 05:24:41;;;;;;;0.68;0.40;;;;;;;15.78;76.61;99430.38;20325843;29;20107;-93
2023/01/19 05:34:43;;;;;;;0.35;0.30;;;;;;;15.89;76.55;99468.69;20306145;29;20099;-93
2023/01/19 05:44:44;;;;;;;0.35;0.30;;;;;;;15.78;76.32;99467.94;20307370;29;20052;-93
2023/01/19 05:54:47;;;;;;;0.85;0.30;;;;;;;15.75;76.31;99500.44;20323616;29;20052;-92
2023/01/19 06:04:48;;;;;;;0.40;0.25;;;;;;;15.66;76.16;99493.34;20306221;29;20059;-92
2023/01/19 06:14:50;;;;;;;0.30;0.30;;;;;;;15.97;76.11;99560.03;20320158;29;20063;-92
2023/01/19 06:24:51;;;;;;;0.30;0.20;;;;;;;15.97;76.21;99560.03;20320664;29;20055;-91
2023/01/19 06:34:53;;;;;;;0.20;0.20;;;;;;;15.87;76.04;99556.53;20320638;29;20115;-92
2023/01/19 06:44:55;;;;;;;0.50;0.38;;;;;;;15.97;75.89;99592.25;20319527;29;20051;-93
2023/01/19 06:54:57;;;;;;;0.40;0.40;;;;;;;15.97;75.89;99611.03;20319076;29;20467;-92
2023/01/19 07:05:01;;;;;;;0.65;0.30;;;;;;;15.80;75.60;99615.38;20304117;29;20059;-87
2023/01/19 07:15:04;;;;;;;0.40;0.30;;;;;;;16.04;76.15;99660.41;20287833;29;20048;-90
2023/01/19 07:25:06;;;;;;;0.35;0.20;;;;;;;16.10;75.94;99667.00;20256498;29;20060;-85
2023/01/19 07:35:09;;;;;;;0.20;0.20;;;;;;;16.09;75.63;99687.63;20283599;29;20067;-84
2023/01/19 07:45:10;;;;;;;1.73;0.30;;;;;;;16.00;75.89;99704.69;20270403;29;20506;-85
2023/01/19 07:55:12;;;;;;;0.88;0.35;;;;;;;16.05;75.88;99721.16;20288165;29;20123;-87
2023/01/19 08:05:14;;;;;;;1.38;0.50;;;;;;;16.03;75.87;99733.91;20283419;29;20123;-84
2023/01/19 08:15:15;;;;;;;0.73;0.50;;;;;;;16.02;75.98;99759.06;20249318;29;20419;-85
2023/01/19 08:25:17;;;;;;;3.20;0.30;;;;;;;16.02;75.80;99780.53;20285763;29;20526;-84
2023/01/19 08:35:22;;;;;;;1.38;0.30;;;;;;;15.99;75.86;99790.72;20305176;29;20052;-83
2023/01/19 08:45:24;;;;;;;1.08;0.20;;;;;;;16.00;75.79;99809.38;20296728;29;20068;-85
2023/01/19 08:55:26;;;;;;;0.52;0.40;;;;;;;15.92;75.72;99807.44;20284754;29;20052;-87
2023/01/19 09:05:28;;;;;;;0.75;0.32;;;;;;;15.52;75.53;99734.31;20296626;29;20052;-86
2023/01/19 09:15:32;;;;;;;0.70;0.25;;;;;;;16.00;75.57;99838.03;20267075;29;20048;-90
2023/01/19 09:25:34;;;;;;;1.47;0.43;;;;;;;15.99;75.55;99850.63;20256848;29;20071;-88
2023/01/19 09:35:37;;;;;;;1.10;0.20;;;;;;;16.00;75.52;99873.81;20279052;29;20410;-90
2023/01/19 09:45:44;;;;;;;0.82;0.30;;;;;;;16.01;75.36;99896.09;20281887;29;20111;-85
2023/01/19 09:55:46;;;;;;;1.35;0.30;;;;;;;16.00;75.31;99906.00;20265146;29;20500;-87
2023/01/19 10:05:49;;;;;;;0.80;0.30;;;;;;;16.01;75.33;99923.81;20291409;29;20106;-87
2023/01/19 10:15:55;;;;;;;0.70;0.60;;;;;;;16.01;75.26;99926.50;20270331;29;20403;-91
2023/01/19 10:26:00;;;;;;;0.80;0.20;;;;;;;15.94;75.38;99922.72;20265032;29;20534;-88
2023/01/19 10:36:06;;;;;;;0.60;0.30;;;;;;;15.94;75.25;99925.41;20269768;29;20059;-92
2023/01/19 10:46:23;;;;;;;0.98;0.30;;;;;;;16.02;75.41;99941.59;20239778;29;20127;-89
2023/01/19 10:56:34;;;;;;;0.60;0.30;;;;;;;16.01;75.25;99942.59;20263133;29;20052;-90
2023/01/19 11:06:35;;;;;;;1.38;0.50;;;;;;;15.99;75.08;99933.84;20278168;29;20056;-94
2023/01/19 11:16:38;;;;;;;0.50;0.30;;;;;;;16.03;75.17;99948.66;20299409;29;20048;-92
2023/01/19 11:26:41;;;;;;;1.15;0.30;;;;;;;16.03;75.13;99954.03;20301793;29;20056;-89
2023/01/19 11:36:54;;;;;;;1.08;0.35;;;;;;;16.03;75.04;99959.41;20312065;29;20545;-90
2023/01/19 11:47:02;;;;;;;0.77;0.30;;;;;;;16.03;75.18;99964.78;20294855;29;20052;-89
2023/01/19 11:57:10;;;;;;;1.92;0.40;;;;;;;15.97;75.04;99964.50;20295376;29;20048;-90
2023/01/19 12:07:13;;;;;;;0.95;0.20;;;;;;;15.95;75.29;99946.72;20283416;29;20419;-94
2023/01/19 12:17:30;;;;;;;1.58;0.30;;;;;;;15.77;74.82;99914.38;20265318;29;20048;-91
2023/01/19 12:27:40;;;;;;;0.93;0.43;;;;;;;16.04;74.88;99961.09;20288105;29;20441;-90
2023/01/19 12:37:42;;;;;;;1.50;0.50;;;;;;;16.05;74.87;99968.16;20292509;29;20096;-92
2023/01/19 12:47:52;;;;;;;0.50;0.45;;;;;;;16.01;74.97;99982.88;20257118;29;20052;-92
2023/01/19 12:58:00;;;;;;;0.20;0.20;;;;;;;16.06;75.01;99990.47;20269923;29;20070;-91
2023/01/19 13:08:01;;;;;;;0.25;0.20;;;;;;;16.04;74.89;99993.31;20265615;29;20059;-86
2023/01/19 13:18:03;;;;;;;0.63;0.30;;;;;;;16.06;74.98;99996.69;20283784;29;20060;-92
2023/01/19 13:28:09;;;;;;;1.27;0.35;;;;;;;15.78;74.71;99948.28;20258998;29;20064;-92
2023/01/19 13:38:21;;;;;;;0.22;0.20;;;;;;;16.06;74.78;100007.44;20300182;29;20048;-91
2023/01/19 13:48:24;;;;;;;1.98;0.40;;;;;;;16.06;74.67;100028.91;20267698;29;20653;-93
2023/01/19 13:58:27;;;;;;;1.10;0.30;;;;;;;15.71;74.81;99970.50;20263153;29;20044;-90
2023/01/19 14:08:30;;;;;;;0.30;0.30;;;;;;;16.07;74.58;100052.09;20257367;29;20821;-89
2023/01/19 14:18:32;;;;;;;0.32;0.22;;;;;;;16.06;74.82;100050.41;20285324;29;20064;-91
2023/01/19 14:28:38;;;;;;;0.40;0.40;;;;;;;16.04;74.47;100052.38;20282467;29;20052;-89
2023/01/19 14:38:48;;;;;;;0.32;0.22;;;;;;;15.91;74.46;100046.50;20271821;29;20060;-94
2023/01/19 14:48:52;;;;;;;0.60;0.28;;;;;;;15.96;74.41;100073.75;20262450;29;20056;-90
2023/01/19 14:58:55;;;;;;;0.50;0.25;;;;;;;15.97;74.45;100088.84;20265969;29;20111;-90
2023/01/19 15:08:57;;;;;;;0.70;0.30;;;;;;;15.86;74.39;100084.44;20292925;29;20056;-88
2023/01/19 15:18:59;;;;;;;0.55;0.22;;;;;;;16.03;74.55;100117.81;20261574;29;20048;-88
2023/01/19 15:29:00;;;;;;;0.68;0.30;;;;;;;15.72;74.38;100080.34;20261371;29;20400;-90
2023/01/19 15:39:02;;;;;;;0.43;0.20;;;;;;;16.03;74.44;100147.34;20288342;29;20064;-91
2023/01/19 15:49:04;;;;;;;0.32;0.20;;;;;;;16.04;74.35;100153.53;20275214;29;20047;-87
2023/01/19 15:59:06;;;;;;;0.10;0.10;;;;;;;16.03;74.41;100163.44;20282357;29;20058;-95
2023/01/19 16:09:07;;;;;;;1.27;0.30;;;;;;;16.04;74.31;100178.56;20457289;23;22686;-92
2023/01/19 16:19:11;;;;;;;0.45;0.20;;;;;;;13.63;73.96;99829.25;20267556;23;20415;-94
2023/01/19 16:29:13;;;;;;;0.98;0.30;;;;;;;13.16;73.88;99795.78;21300266;23;20105;-90
2023/01/19 16:39:15;;;;;;;0.30;0.25;;;;;;;15.61;73.85;100128.81;20450801;23;20050;-92
2023/01/19 16:49:19;;;;;;;1.08;0.30;;;;;;;16.03;73.98;100206.41;20173111;29;20049;-89
2023/01/19 16:59:21;;;;;;;0.40;0.30;;;;;;;16.04;73.80;100217.97;20126922;29;20057;-95
2023/01/19 17:09:23;;;;;;;0.40;0.20;;;;;;;16.03;73.67;100222.53;20146388;29;20044;-89
2023/01/19 17:19:24;;;;;;;0.80;0.30;;;;;;;16.03;73.32;100241.31;20139676;29;20508;-90
2023/01/19 17:29:30;;;;;;;0.90;0.28;;;;;;;16.03;73.13;100257.44;20140041;29;20063;-91
2023/01/19 17:39:32;;;;;;;0.88;0.30;;;;;;;16.02;72.82;100262.91;20130155;29;20508;-87
2023/01/19 17:49:34;;;;;;;0.60;0.20;;;;;;;16.01;72.85;100269.28;20122364;29;20416;-88
2023/01/19 17:59:41;;;;;;;0.32;0.20;;;;;;;15.99;73.06;100274.81;20139313;29;20136;-88
2023/01/19 18:09:43;;;;;;;0.63;0.30;;;;;;;16.01;73.00;100280.03;20125817;29;20091;-90
2023/01/19 18:19:44;;;;;;;0.73;0.28;;;;;;;16.01;73.22;100283.56;20145417;29;20052;-87
2023/01/19 18:29:46;;;;;;;2.25;0.32;;;;;;;16.02;73.33;100298.69;20164371;29;20053;-89
2023/01/19 18:39:47;;;;;;;0.32;0.30;;;;;;;16.03;73.05;100302.19;20165236;29;20061;-87
2023/01/19 18:49:49;;;;;;;0.63;0.30;;;;;;;15.78;73.16;100262.28;20163730;29;20117;-87
2023/01/19 18:59:50;;;;;;;0.25;0.10;;;;;;;16.02;73.04;100297.81;20132902;29;20054;-88
2023/01/19 19:09:52;;;;;;;0.43;0.30;;;;;;;16.01;73.24;100310.41;20143394;29;20151;-87
2023/01/19 19:19:53;;;;;;;0.30;0.25;;;;;;;16.01;73.10;100310.41;20161925;29;20056;-85
2023/01/19 19:29:55;;;;;;;0.32;0.20;;;;;;;16.01;73.22;100309.56;20162727;29;20683;-84
2023/01/19 19:39:59;;;;;;;0.38;0.20;;;;;;;15.94;72.92;100304.75;20163156;29;20056;-86
2023/01/19 19:50:00;;;;;;;0.55;0.20;;;;;;;16.00;72.97;100338.25;20162285;29;20068;-87
2023/01/19 20:00:04;;;;;;;0.73;0.20;;;;;;;16.00;73.13;100357.03;20161723;29;20051;-86
2023/01/19 20:10:09;;;;;;;0.20;0.20;;;;;;;16.00;73.14;100374.97;20161269;29;20516;-86
2023/01/19 20:20:12;;;;;;;0.30;0.30;;;;;;;15.78;72.97;100369.66;20158024;29;20048;-86
2023/01/19 20:30:14;;;;;;;0.43;0.20;;;;;;;15.99;73.00;100403.69;20158292;29;20059;-86
2023/01/19 20:40:16;;;;;;;0.60;0.28;;;;;;;15.99;72.84;100406.34;20158361;29;20076;-86
2023/01/19 20:50:17;;;;;;;0.75;0.38;;;;;;;15.91;72.74;100409.72;20173003;29;20109;-87
2023/01/19 21:00:19;;;;;;;0.20;0.20;;;;;;;15.74;72.61;100388.84;20156892;29;20060;-86
2023/01/19 21:10:21;;;;;;;0.40;0.30;;;;;;;15.99;72.78;100468.09;20171611;29;20068;-86
2023/01/19 21:20:22;;;;;;;0.63;0.30;;;;;;;15.99;72.68;100460.06;20172937;29;20056;-86
2023/01/19 21:30:24;;;;;;;0.20;0.15;;;;;;;15.99;72.72;100469.94;20171372;29;20055;-86
2023/01/19 21:40:25;;;;;;;0.82;0.20;;;;;;;15.99;72.46;100476.16;20169269;29;20516;-86
2023/01/19 21:50:27;;;;;;;0.15;0.10;;;;;;;15.92;72.55;100475.00;20167079;29;20085;-86
2023/01/19 22:00:29;;;;;;;0.30;0.20;;;;;;;16.00;72.62;100490.44;20169514;29;20060;-84
2023/01/19 22:10:30;;;;;;;1.05;0.40;;;;;;;15.93;72.42;100495.50;20152008;29;20065;-86
2023/01/19 22:20:32;;;;;;;0.20;0.20;;;;;;;15.99;72.33;100511.06;20168802;29;20056;-86
2023/01/19 22:30:33;;;;;;;0.60;0.30;;;;;;;15.99;72.46;100524.50;20167396;29;20073;-86
2023/01/19 22:40:35;;;;;;;0.57;0.28;;;;;;;15.98;72.21;100514.75;20166736;29;20057;-86
2023/01/19 22:50:36;;;;;;;0.50;0.20;;;;;;;15.76;72.20;100488.88;20164888;29;20053;-87
2023/01/19 23:00:38;;;;;;;0.40;0.20;;;;;;;15.99;72.29;100535.22;20163799;29;20073;-86
2023/01/19 23:10:40;;;;;;;0.20;0.20;;;;;;;15.98;72.25;100525.47;20162262;29;20108;-87
2023/01/19 23:20:41;;;;;;;0.38;0.20;;;;;;;15.99;72.16;100537.91;20163768;29;20064;-86
2023/01/19 23:30:43;;;;;;;0.50;0.30;;;;;;;15.99;71.97;100553.16;20161866;29;20131;-87
2023/01/19 23:40:44;;;;;;;0.30;0.20;;;;;;;15.98;72.11;100554.16;20161287;29;20052;-86
2023/01/19 23:50:46;;;;;;;0.28;0.10;;;;;;;16.00;72.03;100562.91;20160023;29;20065;-84
